Time;durP1;ratioP1;P1;durP2;ratioP2;P2;SDS_P1;SDS_P2;PMS_P1;PMS_P2;Temp;Humidity;BMP_temperature;BMP_pressure;BME280_temperature;BME280_humidity;BME280_pressure;Samples;Min_cycle;Max_cycle;Signal;HPM_P1;HPM_P2
2022/04/10 00:01:09;;;;;;;34.25;17.23;;;2.20;99.90;;;;;;5095216;28;20066;-53
2022/04/10 00:03:35;;;;;;;139.13;22.92;;;2.20;99.90;;;;;;5095250;28;20123;-53
2022/04/10 00:06:01;;;;;;;43.47;20.35;;;2.20;99.90;;;;;;5095160;28;20081;-53
2022/04/10 00:08:27;;;;;;;40.55;19.40;;;2.20;99.90;;;;;;5095131;28;20446;-53
2022/04/10 00:10:53;;;;;;;35.92;18.02;;;2.20;99.90;;;;;;5095196;28;20035;-53
2022/04/10 00:13:19;;;;;;;38.45;20.05;;;2.10;99.90;;;;;;5094872;28;20024;-53
2022/04/10 00:15:45;;;;;;;42.80;20.20;;;2.20;99.90;;;;;;5094955;28;20101;-53
2022/04/10 00:18:12;;;;;;;45.78;19.00;;;2.10;99.90;;;;;;5095050;28;20024;-53
2022/04/10 00:20:37;;;;;;;48.03;19.73;;;2.20;99.90;;;;;;5095005;28;20091;-53
2022/04/10 00:23:04;;;;;;;36.83;16.83;;;2.10;99.90;;;;;;5094648;28;20032;-53
2022/04/10 00:25:31;;;;;;;42.22;18.55;;;2.10;99.90;;;;;;5095028;28;20043;-53
2022/04/10 00:27:57;;;;;;;42.67;18.20;;;2.10;99.90;;;;;;5094927;28;20043;-53
2022/04/10 00:30:23;;;;;;;39.30;16.35;;;2.20;99.90;;;;;;5094935;28;20385;-53
2022/04/10 00:32:49;;;;;;;32.38;15.95;;;2.10;99.90;;;;;;5094746;28;20024;-53
2022/04/10 00:35:15;;;;;;;37.10;15.85;;;2.10;99.90;;;;;;5076453;28;20027;-53
2022/04/10 00:37:41;;;;;;;37.83;15.65;;;2.20;99.90;;;;;;5094705;28;20062;-53
2022/04/10 00:40:09;;;;;;;85.20;17.65;;;2.30;99.90;;;;;;5094793;28;20384;-53
2022/04/10 00:42:37;;;;;;;34.95;16.05;;;2.20;99.90;;;;;;5076523;28;20027;-53
2022/04/10 00:45:05;;;;;;;36.50;17.52;;;2.20;99.90;;;;;;5076424;28;20032;-53
2022/04/10 00:47:31;;;;;;;46.03;18.30;;;2.20;99.90;;;;;;5094576;28;20036;-52
2022/04/10 00:49:59;;;;;;;34.10;17.02;;;2.20;99.90;;;;;;5076384;28;20032;-52
2022/04/10 00:52:29;;;;;;;32.85;16.60;;;2.20;99.90;;;;;;5094540;28;20081;-53
2022/04/10 00:54:55;;;;;;;39.58;17.70;;;2.20;99.90;;;;;;5094541;28;20028;-53
2022/04/10 00:57:23;;;;;;;42.65;18.40;;;2.20;99.90;;;;;;5094366;28;20107;-53
2022/04/10 00:59:49;;;;;;;37.85;18.67;;;2.20;99.90;;;;;;5094342;28;20028;-53
2022/04/10 01:02:15;;;;;;;36.20;18.52;;;2.10;99.90;;;;;;5094427;28;20037;-53
2022/04/10 01:04:42;;;;;;;38.63;20.25;;;2.10;99.90;;;;;;5093123;28;20028;-53
2022/04/10 01:07:11;;;;;;;50.42;28.40;;;2.20;99.90;;;;;;5094465;28;20024;-53
2022/04/10 01:09:41;;;;;;;46.63;24.65;;;2.20;99.90;;;;;;5076347;28;20020;-53
2022/04/10 01:12:08;;;;;;;41.75;21.73;;;2.20;99.90;;;;;;5076085;28;20040;-53
2022/04/10 01:14:36;;;;;;;42.40;21.88;;;2.20;99.90;;;;;;5076263;28;20036;-53
2022/04/10 01:17:07;;;;;;;40.15;20.35;;;2.20;99.90;;;;;;5076175;28;20044;-53
2022/04/10 01:19:35;;;;;;;31.63;15.13;;;2.10;99.90;;;;;;5076050;28;20069;-53
2022/04/10 01:22:05;;;;;;;33.67;16.60;;;2.20;99.90;;;;;;5076112;28;20028;-53
2022/04/10 01:24:39;;;;;;;32.75;16.30;;;2.20;99.90;;;;;;5076043;28;20024;-53
2022/04/10 01:27:08;;;;;;;31.48;15.20;;;2.30;99.90;;;;;;5075978;28;20516;-53
2022/04/10 01:29:34;;;;;;;38.33;18.88;;;2.30;99.90;;;;;;5076179;28;20067;-53
2022/04/10 01:32:00;;;;;;;47.45;23.05;;;2.30;99.90;;;;;;5076092;28;20098;-53
2022/04/10 01:34:27;;;;;;;44.00;20.70;;;2.20;99.90;;;;;;5075764;28;20452;-53
2022/04/10 01:36:53;;;;;;;40.38;20.30;;;2.30;99.90;;;;;;5076250;28;20031;-52
2022/04/10 01:39:19;;;;;;;39.97;18.77;;;2.20;99.90;;;;;;5075908;28;20028;-53
2022/04/10 01:41:48;;;;;;;36.15;17.90;;;2.20;99.90;;;;;;5075974;28;20119;-53
2022/04/10 01:44:15;;;;;;;42.90;19.88;;;2.30;99.90;;;;;;5076034;28;20089;-52
2022/04/10 01:46:41;;;;;;;45.97;19.38;;;2.40;99.90;;;;;;5093880;28;20115;-53
2022/04/10 01:49:09;;;;;;;41.28;17.60;;;2.40;99.90;;;;;;5075911;28;20024;-52
2022/04/10 01:51:36;;;;;;;34.55;16.13;;;2.50;99.90;;;;;;5075903;28;20035;-53
2022/04/10 01:54:03;;;;;;;36.20;16.10;;;2.50;99.90;;;;;;5094115;28;20105;-52
2022/04/10 01:56:29;;;;;;;27.48;12.68;;;2.40;99.90;;;;;;5092742;28;20070;-53
2022/04/10 01:58:55;;;;;;;26.08;12.50;;;2.50;99.90;;;;;;5079286;28;20054;-53
2022/04/10 02:01:23;;;;;;;21.20;10.00;;;2.50;99.90;;;;;;5079706;28;20035;-53
2022/04/10 02:03:50;;;;;;;20.15;9.30;;;2.50;99.90;;;;;;5097608;28;20055;-52
2022/04/10 02:06:17;;;;;;;17.80;8.13;;;2.40;99.90;;;;;;5079387;28;20523;-52
2022/04/10 02:08:47;;;;;;;18.77;9.93;;;2.50;99.90;;;;;;5079198;28;20036;-53
2022/04/10 02:11:15;;;;;;;51.20;11.15;;;2.40;99.90;;;;;;5096281;28;20614;-53
2022/04/10 02:13:44;;;;;;;27.50;11.60;;;2.50;99.90;;;;;;5079180;28;20061;-53
2022/04/10 02:16:12;;;;;;;27.65;10.80;;;2.50;99.90;;;;;;5078964;28;20044;-53
2022/04/10 02:18:38;;;;;;;29.02;11.55;;;2.50;99.90;;;;;;5097383;28;20024;-52
2022/04/10 02:21:05;;;;;;;36.35;14.07;;;2.40;99.90;;;;;;5079033;28;20035;-52
2022/04/10 02:23:31;;;;;;;31.55;13.40;;;2.40;99.90;;;;;;5078955;28;20032;-52
2022/04/10 02:25:57;;;;;;;41.90;16.27;;;2.40;99.90;;;;;;5079165;28;20032;-52
2022/04/10 02:28:23;;;;;;;53.03;22.23;;;2.40;99.90;;;;;;5097276;28;20418;-52
2022/04/10 02:30:49;;;;;;;66.68;25.05;;;2.30;99.90;;;;;;5079065;28;20028;-53
2022/04/10 02:33:15;;;;;;;78.60;27.95;;;2.30;99.90;;;;;;5078863;28;20122;-52
2022/04/10 02:35:41;;;;;;;66.97;26.13;;;2.30;99.90;;;;;;5078751;28;20032;-52
2022/04/10 02:38:07;;;;;;;77.45;24.73;;;2.30;99.90;;;;;;5096911;28;20041;-52
2022/04/10 02:40:33;;;;;;;73.15;28.30;;;2.30;99.90;;;;;;5096967;28;20020;-52
2022/04/10 02:42:59;;;;;;;71.20;27.60;;;2.30;99.90;;;;;;5096889;28;20020;-52
2022/04/10 02:45:25;;;;;;;62.28;24.55;;;2.30;99.90;;;;;;5096792;28;20093;-52
2022/04/10 02:47:51;;;;;;;68.97;27.38;;;2.20;99.90;;;;;;5096850;28;20381;-52
2022/04/10 02:50:18;;;;;;;66.28;26.85;;;2.30;99.90;;;;;;5078496;28;20028;-52
2022/04/10 02:52:44;;;;;;;69.07;27.63;;;2.30;99.90;;;;;;5078501;28;20145;-52
2022/04/10 02:55:11;;;;;;;64.10;26.00;;;2.30;99.90;;;;;;5078551;28;20145;-52
2022/04/10 02:57:37;;;;;;;64.95;26.35;;;2.30;99.90;;;;;;5078503;28;20120;-52
2022/04/10 03:00:05;;;;;;;57.42;24.27;;;2.30;99.90;;;;;;5078228;28;20031;-52
2022/04/10 03:02:32;;;;;;;54.05;24.00;;;2.30;99.90;;;;;;5078341;28;20031;-52
2022/04/10 03:04:58;;;;;;;57.47;23.70;;;2.30;99.90;;;;;;5078198;28;20440;-52
2022/04/10 03:07:24;;;;;;;53.60;22.35;;;2.30;99.90;;;;;;5078260;28;20024;-52
2022/04/10 03:09:50;;;;;;;55.92;23.73;;;2.30;99.90;;;;;;5094194;28;20035;-52
2022/04/10 03:12:16;;;;;;;48.53;22.05;;;2.20;99.90;;;;;;5077848;28;20470;-52
2022/04/10 03:14:43;;;;;;;50.35;20.10;;;2.40;99.90;;;;;;5077958;28;20028;-52
2022/04/10 03:17:11;;;;;;;50.85;22.35;;;2.40;99.90;;;;;;5075913;28;20045;-52
2022/04/10 03:19:37;;;;;;;47.85;21.48;;;2.50;99.90;;;;;;5100445;28;20082;-53
2022/04/10 03:22:04;;;;;;;47.63;21.02;;;2.50;99.90;;;;;;5074690;28;20032;-52
2022/04/10 03:24:30;;;;;;;45.53;20.05;;;2.40;99.90;;;;;;5075808;28;20058;-53
2022/04/10 03:26:56;;;;;;;44.92;19.52;;;2.40;99.90;;;;;;5074374;28;20375;-52
2022/04/10 03:29:22;;;;;;;43.97;19.88;;;2.50;99.90;;;;;;5074537;28;20031;-52
2022/04/10 03:31:48;;;;;;;51.70;22.67;;;2.40;99.90;;;;;;5074416;28;20028;-52
2022/04/10 03:34:14;;;;;;;54.55;23.85;;;2.40;99.90;;;;;;5074238;28;20120;-53
2022/04/10 03:36:40;;;;;;;46.40;19.27;;;2.40;99.90;;;;;;5075754;28;20024;-52
2022/04/10 03:39:08;;;;;;;41.15;17.50;;;2.40;99.90;;;;;;5074401;28;20035;-53
2022/04/10 03:41:34;;;;;;;37.38;16.15;;;2.40;99.90;;;;;;5074028;28;20037;-52
2022/04/10 03:44:00;;;;;;;38.78;17.00;;;2.60;99.90;;;;;;5074158;28;20041;-53
2022/04/10 03:46:27;;;;;;;39.20;15.73;;;2.60;99.90;;;;;;5075323;28;20035;-53
2022/04/10 03:48:53;;;;;;;36.13;15.93;;;2.60;99.90;;;;;;5074088;28;20032;-53
2022/04/10 03:51:19;;;;;;;33.40;15.55;;;2.60;99.90;;;;;;5075359;28;20474;-52
2022/04/10 03:53:46;;;;;;;35.33;16.20;;;2.60;99.90;;;;;;5073861;28;20054;-52
2022/04/10 03:56:14;;;;;;;33.50;15.55;;;2.50;99.90;;;;;;5074004;28;20050;-52
2022/04/10 03:58:41;;;;;;;33.45;14.38;;;2.60;99.90;;;;;;5073722;28;20013;-52
2022/04/10 04:01:07;;;;;;;24.73;12.40;;;2.60;99.90;;;;;;5073834;28;20036;-53
2022/04/10 04:03:35;;;;;;;26.25;13.43;;;2.60;99.90;;;;;;5073593;28;20482;-52
2022/04/10 04:06:02;;;;;;;37.15;16.38;;;2.50;99.90;;;;;;5073879;28;20028;-53
2022/04/10 04:08:28;;;;;;;41.40;18.50;;;2.60;99.90;;;;;;5073669;28;20389;-52
2022/04/10 04:10:54;;;;;;;43.67;20.33;;;2.50;99.90;;;;;;5073605;28;20036;-53
2022/04/10 04:13:22;;;;;;;47.50;21.08;;;2.50;99.90;;;;;;5073591;28;20040;-52
2022/04/10 04:15:48;;;;;;;43.33;19.65;;;2.50;99.90;;;;;;5074089;28;20044;-53
2022/04/10 04:18:15;;;;;;;60.15;25.42;;;2.50;99.90;;;;;;5073472;28;20024;-52
2022/04/10 04:20:41;;;;;;;66.53;29.80;;;2.60;99.90;;;;;;5073181;28;20488;-52
2022/04/10 04:23:07;;;;;;;61.60;30.05;;;2.60;99.90;;;;;;5090272;28;20035;-52
2022/04/10 04:25:33;;;;;;;83.80;39.72;;;2.60;99.90;;;;;;5073446;28;20059;-52
2022/04/10 04:28:01;;;;;;;70.07;31.10;;;2.50;99.90;;;;;;5073502;28;20055;-52
2022/04/10 04:30:27;;;;;;;68.90;34.35;;;2.50;99.90;;;;;;5073224;28;20025;-52
2022/04/10 04:32:58;;;;;;;65.97;32.33;;;2.60;99.90;;;;;;5073349;28;20660;-52
2022/04/10 04:35:24;;;;;;;77.85;37.22;;;2.60;99.90;;;;;;5073380;28;20035;-53
2022/04/10 04:37:50;;;;;;;81.28;38.35;;;2.50;99.90;;;;;;5073219;28;20035;-52
2022/04/10 04:40:20;;;;;;;84.18;38.67;;;2.60;99.90;;;;;;5073352;28;20596;-53
2022/04/10 04:42:47;;;;;;;88.18;40.97;;;2.50;99.90;;;;;;5073278;28;20119;-52
2022/04/10 04:45:14;;;;;;;80.65;36.00;;;2.50;99.90;;;;;;5073138;28;20045;-52
2022/04/10 04:47:54;;;;;;;66.75;28.13;;;2.40;99.90;;;;;;5073294;28;20067;-53
2022/04/10 04:50:21;;;;;;;73.13;32.97;;;2.40;99.90;;;;;;5073237;28;20048;-52
2022/04/10 04:52:47;;;;;;;72.40;32.40;;;2.50;99.90;;;;;;5073036;28;20524;-52
2022/04/10 04:55:13;;;;;;;63.58;28.58;;;2.50;99.90;;;;;;5073011;28;20033;-52
2022/04/10 04:57:39;;;;;;;64.65;27.58;;;2.50;99.90;;;;;;5073061;28;20024;-53
2022/04/10 05:00:07;;;;;;;62.47;27.88;;;2.60;99.90;;;;;;5072896;28;20047;-52
2022/04/10 05:02:38;;;;;;;67.97;27.83;;;2.50;99.90;;;;;;5068173;28;20534;-52
2022/04/10 05:05:05;;;;;;;64.97;26.92;;;2.50;99.90;;;;;;5054080;28;20379;-52
2022/04/10 05:07:32;;;;;;;66.88;28.55;;;2.50;99.90;;;;;;5069619;28;20087;-52
2022/04/10 05:09:58;;;;;;;61.13;27.40;;;2.60;99.90;;;;;;5069573;28;20561;-52
2022/04/10 05:12:24;;;;;;;65.20;27.35;;;2.60;99.90;;;;;;5054267;28;20025;-52
2022/04/10 05:14:51;;;;;;;63.88;27.63;;;2.60;99.90;;;;;;5069446;28;20033;-52
2022/04/10 05:17:19;;;;;;;70.85;29.55;;;2.70;99.90;;;;;;5032778;28;20045;-52
2022/04/10 05:19:48;;;;;;;83.22;32.30;;;2.70;99.90;;;;;;5069155;28;20029;-52
2022/04/10 05:22:15;;;;;;;86.82;37.35;;;2.70;99.90;;;;;;5036219;28;20475;-52
2022/04/10 05:24:48;;;;;;;84.65;35.90;;;2.70;99.90;;;;;;5069591;28;20100;-52
2022/04/10 05:27:14;;;;;;;79.25;33.00;;;2.70;99.90;;;;;;5036001;28;20039;-53
2022/04/10 05:29:40;;;;;;;82.18;35.47;;;2.70;99.90;;;;;;5036187;28;20029;-52
2022/04/10 05:32:07;;;;;;;77.25;34.65;;;2.70;99.90;;;;;;5036839;28;20463;-52
2022/04/10 05:34:33;;;;;;;90.22;34.60;;;2.70;99.90;;;;;;5072873;28;20037;-52
2022/04/10 05:36:59;;;;;;;89.22;36.70;;;2.70;99.90;;;;;;5073283;28;20025;-52
2022/04/10 05:39:26;;;;;;;93.95;38.97;;;2.80;99.90;;;;;;5073312;28;20029;-53
2022/04/10 05:41:52;;;;;;;87.78;37.05;;;2.80;99.90;;;;;;5073066;28;20029;-52
2022/04/10 05:44:18;;;;;;;80.63;37.10;;;2.70;99.90;;;;;;5073123;28;20106;-53
2022/04/10 05:46:45;;;;;;;88.03;37.28;;;2.80;99.90;;;;;;5073080;28;20036;-52
2022/04/10 05:49:12;;;;;;;93.85;38.58;;;2.70;99.90;;;;;;5039713;28;20390;-52
2022/04/10 05:51:38;;;;;;;94.22;39.55;;;2.70;99.90;;;;;;5072901;28;20040;-52
2022/04/10 05:54:04;;;;;;;96.88;41.40;;;2.80;99.90;;;;;;5073002;28;20082;-52
2022/04/10 05:56:37;;;;;;;100.78;39.95;;;2.80;99.90;;;;;;5072667;28;20032;-53
2022/04/10 05:59:03;;;;;;;111.43;42.15;;;2.80;99.90;;;;;;5057317;28;20078;-52
2022/04/10 06:01:29;;;;;;;118.78;42.95;;;2.80;99.90;;;;;;5072833;28;20029;-53
2022/04/10 06:03:55;;;;;;;115.55;42.33;;;2.70;99.90;;;;;;5088196;28;20051;-52
2022/04/10 06:06:22;;;;;;;149.43;49.13;;;2.80;99.90;;;;;;5059421;28;20036;-52
2022/04/10 06:08:55;;;;;;;160.05;47.75;;;2.80;99.90;;;;;;5092997;28;20026;-53
2022/04/10 06:11:21;;;;;;;122.40;42.17;;;2.80;99.90;;;;;;5059268;28;20394;-53
2022/04/10 06:13:47;;;;;;;158.50;48.22;;;2.80;99.90;;;;;;5077020;28;20090;-52
2022/04/10 06:16:19;;;;;;;183.27;54.30;;;2.80;99.90;;;;;;5092396;28;20071;-52
2022/04/10 06:18:46;;;;;;;146.23;47.92;;;2.80;99.90;;;;;;5092544;28;20449;-53
2022/04/10 06:21:12;;;;;;;104.45;39.83;;;2.80;99.90;;;;;;5092632;28;20039;-53
2022/04/10 06:23:40;;;;;;;97.97;37.17;;;2.80;99.90;;;;;;5072117;28;20082;-52
2022/04/10 06:26:13;;;;;;;111.40;40.20;;;2.90;99.90;;;;;;5075548;28;20367;-53
2022/04/10 06:28:39;;;;;;;116.03;41.58;;;3.10;99.90;;;;;;5075702;28;20024;-53
2022/04/10 06:31:10;;;;;;;94.80;38.42;;;3.10;99.90;;;;;;5075407;28;20035;-52
2022/04/10 06:33:38;;;;;;;107.65;38.97;;;3.10;99.90;;;;;;5078828;28;20606;-53
2022/04/10 06:36:05;;;;;;;150.77;60.65;;;3.30;99.90;;;;;;5078783;28;20389;-53
2022/04/10 06:38:31;;;;;;;117.05;49.58;;;3.30;99.90;;;;;;5078670;28;20036;-53
2022/04/10 06:41:08;;;;;;;93.95;43.30;;;3.40;99.90;;;;;;5078788;28;20020;-53
2022/04/10 06:43:34;;;;;;;95.82;44.63;;;3.40;99.90;;;;;;5096607;28;20030;-52
2022/04/10 06:46:04;;;;;;;89.22;40.03;;;3.60;99.90;;;;;;5096848;28;20089;-53
2022/04/10 06:48:38;;;;;;;112.38;42.28;;;3.60;99.90;;;;;;5078695;28;20614;-53
2022/04/10 06:51:04;;;;;;;126.03;51.33;;;3.60;99.90;;;;;;5078823;28;20028;-53
2022/04/10 06:53:31;;;;;;;249.15;151.20;;;3.80;99.90;;;;;;5078344;28;20036;-53
2022/04/10 06:55:58;;;;;;;139.63;73.53;;;3.80;99.90;;;;;;5078448;28;20114;-53
2022/04/10 06:58:25;;;;;;;132.07;70.60;;;3.90;99.90;;;;;;5078541;28;20032;-53
2022/04/10 07:00:52;;;;;;;95.15;46.60;;;3.90;99.90;;;;;;5078411;28;20458;-53
2022/04/10 07:03:18;;;;;;;66.53;32.33;;;4.00;99.90;;;;;;5086096;28;20027;-53
2022/04/10 07:05:45;;;;;;;60.30;27.83;;;4.10;99.90;;;;;;5091799;28;20032;-53
2022/04/10 07:08:18;;;;;;;54.03;26.20;;;4.20;99.90;;;;;;5091704;28;20028;-53
2022/04/10 07:10:45;;;;;;;60.78;27.88;;;4.30;99.90;;;;;;5074486;28;20074;-53
2022/04/10 07:13:17;;;;;;;72.90;34.60;;;4.40;99.90;;;;;;5091388;28;20028;-53
2022/04/10 07:15:48;;;;;;;63.63;31.75;;;4.50;99.90;;;;;;5058360;28;20044;-53
2022/04/10 07:18:14;;;;;;;59.75;29.48;;;4.60;99.90;;;;;;5078149;28;20493;-53
2022/04/10 07:20:41;;;;;;;79.03;38.90;;;4.60;99.90;;;;;;5077898;28;20031;-53
2022/04/10 07:25:55;;;;;;;50.08;25.77;;;4.70;99.90;;;;;;5094914;28;20032;-52
2022/04/10 07:28:22;;;;;;;49.22;26.23;;;4.70;99.90;;;;;;5077804;28;20505;-53
2022/04/10 07:30:52;;;;;;;46.42;23.98;;;4.80;99.90;;;;;;5077914;28;20028;-53
2022/04/10 07:33:18;;;;;;;46.75;23.52;;;4.90;99.90;;;;;;5077819;28;20035;-54
2022/04/10 07:35:51;;;;;;;42.15;22.63;;;4.90;99.90;;;;;;5095580;28;20054;-53
2022/04/10 07:38:22;;;;;;;57.63;30.23;;;4.90;99.90;;;;;;5077665;28;20020;-53
2022/04/10 07:40:48;;;;;;;38.58;20.60;;;4.90;99.90;;;;;;5077660;28;20040;-53
2022/04/10 07:43:22;;;;;;;35.78;19.15;;;4.90;99.90;;;;;;5077441;28;20035;-53
2022/04/10 07:48:52;;;;;;;37.00;18.92;;;4.90;99.90;;;;;;5088098;28;20058;-53
2022/04/10 07:51:22;;;;;;;28.40;16.38;;;4.90;99.90;;;;;;5077449;28;20392;-53
2022/04/10 07:53:57;;;;;;;26.70;14.95;;;5.10;99.90;;;;;;5077502;28;20073;-53
2022/04/10 07:56:25;;;;;;;27.05;14.50;;;4.90;99.90;;;;;;5076704;28;20046;-53
2022/04/10 07:58:51;;;;;;;27.67;15.88;;;5.00;99.90;;;;;;5077124;28;20020;-53
2022/04/10 08:01:37;;;;;;;19.33;13.13;;;5.00;99.90;;;;;;5077393;28;20367;-53
2022/04/10 08:04:08;;;;;;;22.13;12.68;;;5.10;99.90;;;;;;5077037;28;20036;-53
2022/04/10 08:06:55;;;;;;;34.33;19.77;;;5.30;99.90;;;;;;5077060;28;20036;-53
2022/04/10 08:09:21;;;;;;;24.00;14.13;;;5.40;99.90;;;;;;5095609;28;20038;-53
2022/04/10 08:11:47;;;;;;;21.08;12.90;;;5.30;99.90;;;;;;5095039;28;20023;-53
2022/04/10 08:14:12;;;;;;;20.50;13.60;;;5.30;99.90;;;;;;5095291;28;20369;-53
2022/04/10 08:16:39;;;;;;;23.88;13.27;;;5.40;99.90;;;;;;5095053;28;20104;-53
2022/04/10 08:19:05;;;;;;;23.23;14.15;;;5.50;99.90;;;;;;5094965;28;20051;-53
2022/04/10 08:21:31;;;;;;;21.88;13.77;;;5.50;99.90;;;;;;5095163;28;20103;-53
2022/04/10 08:23:56;;;;;;;18.83;13.27;;;5.50;99.90;;;;;;5094984;28;20077;-53
2022/04/10 08:26:22;;;;;;;20.13;13.68;;;5.40;99.90;;;;;;5094963;28;20492;-53
2022/04/10 08:28:48;;;;;;;22.90;15.05;;;5.40;99.90;;;;;;5094941;28;20031;-53
2022/04/10 08:31:14;;;;;;;21.52;14.35;;;5.40;99.90;;;;;;5095316;28;20024;-53
2022/04/10 08:33:40;;;;;;;27.65;17.88;;;5.40;99.90;;;;;;5094984;28;20481;-53
2022/04/10 08:36:06;;;;;;;26.50;18.17;;;5.30;99.90;;;;;;5094805;28;20390;-53
2022/04/10 08:38:32;;;;;;;28.63;16.90;;;5.40;99.90;;;;;;5094693;28;20035;-53
2022/04/10 08:41:00;;;;;;;22.63;14.65;;;5.50;99.90;;;;;;5094743;28;20043;-53
2022/04/10 08:43:27;;;;;;;23.50;16.52;;;5.30;99.90;;;;;;5094773;28;20035;-53
2022/04/10 08:45:57;;;;;;;27.00;17.40;;;5.30;99.90;;;;;;5094692;28;20039;-53
2022/04/10 08:48:27;;;;;;;23.48;16.05;;;5.40;99.90;;;;;;5094654;28;20035;-53
2022/04/10 08:50:57;;;;;;;23.43;15.23;;;5.30;99.90;;;;;;5094748;28;20028;-53
2022/04/10 08:53:24;;;;;;;25.02;16.10;;;5.50;99.90;;;;;;5094523;28;20303;-53
2022/04/10 08:55:50;;;;;;;23.33;14.77;;;5.50;99.90;;;;;;5094499;28;20042;-53
2022/04/10 08:58:19;;;;;;;21.15;14.77;;;5.50;99.90;;;;;;5094406;28;20031;-53
2022/04/10 09:00:45;;;;;;;23.08;14.93;;;5.40;99.90;;;;;;5094680;28;20032;-53
2022/04/10 09:03:11;;;;;;;24.75;14.18;;;5.30;99.90;;;;;;5094349;28;20477;-53
2022/04/10 09:05:40;;;;;;;24.02;15.27;;;5.40;99.90;;;;;;5094593;28;20237;-53
2022/04/10 09:08:17;;;;;;;25.00;14.90;;;5.40;99.90;;;;;;5098605;28;20031;-53
2022/04/10 09:11:02;;;;;;;24.02;15.30;;;5.40;99.90;;;;;;5098543;28;20059;-53
2022/04/10 09:13:46;;;;;;;33.17;20.73;;;5.50;99.90;;;;;;5098366;28;20050;-53
2022/04/10 09:16:23;;;;;;;49.78;30.80;;;5.50;99.90;;;;;;5098275;28;20039;-53
2022/04/10 09:18:54;;;;;;;41.58;26.58;;;5.40;99.90;;;;;;5098641;28;20020;-53
2022/04/10 09:21:23;;;;;;;38.45;23.02;;;5.50;99.90;;;;;;5098202;28;20024;-53
2022/04/10 09:23:57;;;;;;;40.97;22.70;;;5.50;99.90;;;;;;5098295;28;20087;-53
2022/04/10 09:26:23;;;;;;;44.83;26.95;;;5.50;99.90;;;;;;5098541;28;20457;-53
2022/04/10 09:28:51;;;;;;;41.60;25.63;;;5.50;99.90;;;;;;5098275;28;20516;-53
2022/04/10 09:31:28;;;;;;;30.42;18.30;;;5.60;99.90;;;;;;5098274;28;20031;-53
2022/04/10 09:33:56;;;;;;;29.85;19.15;;;5.60;99.90;;;;;;5098367;28;20032;-53
2022/04/10 09:36:29;;;;;;;28.50;17.98;;;5.60;99.90;;;;;;5097927;28;20023;-53
2022/04/10 09:38:55;;;;;;;25.83;17.05;;;5.70;99.90;;;;;;5098520;28;20020;-53
2022/04/10 09:41:21;;;;;;;24.02;16.95;;;5.90;99.90;;;;;;5098266;28;20571;-53
2022/04/10 09:43:47;;;;;;;28.73;19.60;;;6.00;99.90;;;;;;5097859;28;20032;-53
2022/04/10 09:46:13;;;;;;;29.95;19.83;;;6.10;99.90;;;;;;5098139;28;20051;-53
2022/04/10 09:48:39;;;;;;;34.10;20.15;;;6.10;99.90;;;;;;5097934;28;20032;-53
2022/04/10 09:51:05;;;;;;;32.67;19.92;;;6.20;99.90;;;;;;5097706;28;20085;-53
2022/04/10 09:53:33;;;;;;;35.80;20.80;;;6.30;99.90;;;;;;5098272;28;20461;-53
2022/04/10 09:56:02;;;;;;;39.47;23.33;;;6.50;99.90;;;;;;5097794;28;20070;-53
2022/04/10 09:58:28;;;;;;;35.72;23.05;;;6.60;99.90;;;;;;5097560;28;20066;-53
2022/04/10 10:00:56;;;;;;;33.33;22.30;;;6.90;99.90;;;;;;5097855;28;20020;-53
2022/04/10 10:03:23;;;;;;;42.38;26.70;;;7.00;99.90;;;;;;5097671;28;20474;-53
2022/04/10 10:05:54;;;;;;;31.42;19.73;;;7.30;99.90;;;;;;5097392;28;20027;-53
2022/04/10 10:08:21;;;;;;;23.92;16.17;;;7.50;99.90;;;;;;5097653;28;20020;-53
2022/04/10 10:10:47;;;;;;;26.17;18.23;;;7.60;99.90;;;;;;5097475;28;20020;-53
2022/04/10 10:13:14;;;;;;;23.55;15.98;;;7.40;99.90;;;;;;5097278;28;20048;-53
2022/04/10 10:15:42;;;;;;;23.58;16.40;;;7.40;99.90;;;;;;5097460;28;20105;-53
2022/04/10 10:18:10;;;;;;;22.63;14.93;;;7.40;99.90;;;;;;5096677;28;20028;-53
2022/04/10 10:20:36;;;;;;;23.42;15.77;;;7.40;99.90;;;;;;5097151;28;20346;-53
2022/04/10 10:23:07;;;;;;;24.80;15.70;;;7.40;99.90;;;;;;5097211;28;20084;-53
2022/04/10 10:25:36;;;;;;;21.75;15.10;;;7.50;99.90;;;;;;5097320;28;20028;-53
2022/04/10 10:28:32;;;;;;;25.15;15.68;;;7.60;99.90;;;;;;5097214;28;20028;-53
2022/04/10 10:31:19;;;;;;;27.98;16.58;;;7.60;99.90;;;;;;5097243;28;20358;-54
2022/04/10 10:33:55;;;;;;;23.50;16.17;;;7.70;99.90;;;;;;5096936;28;20059;-53
2022/04/10 10:36:29;;;;;;;19.50;12.80;;;7.50;99.90;;;;;;5097287;28;20024;-54
2022/04/10 10:38:57;;;;;;;17.42;12.13;;;7.80;99.90;;;;;;5097122;28;20024;-53
2022/04/10 10:41:23;;;;;;;21.58;13.73;;;7.90;99.90;;;;;;5096899;28;20028;-54
2022/04/10 10:43:49;;;;;;;20.27;12.98;;;8.20;99.90;;;;;;5096904;28;20035;-54
2022/04/10 10:46:32;;;;;;;19.13;13.30;;;8.30;99.90;;;;;;5096969;28;20470;-53
2022/04/10 10:49:17;;;;;;;21.60;13.85;;;8.30;99.90;;;;;;5097101;28;20031;-54
2022/04/10 10:51:44;;;;;;;23.63;14.38;;;8.30;99.90;;;;;;5096812;28;20114;-54
2022/04/10 10:54:21;;;;;;;23.40;13.43;;;8.20;99.90;;;;;;5096667;28;20431;-54
2022/04/10 10:56:50;;;;;;;24.75;14.10;;;8.30;99.90;;;;;;5096626;28;20032;-54
2022/04/10 10:59:37;;;;;;;20.98;13.60;;;8.50;99.90;;;;;;5096559;28;20372;-54
2022/04/10 11:02:08;;;;;;;20.10;12.93;;;8.50;99.90;;;;;;5096408;28;20024;-53
2022/04/10 11:04:38;;;;;;;17.63;12.25;;;8.50;99.90;;;;;;5096566;28;20020;-54
2022/04/10 11:07:24;;;;;;;22.35;14.45;;;8.70;99.90;;;;;;5096532;28;20027;-53
2022/04/10 11:10:08;;;;;;;20.55;13.40;;;8.70;99.90;;;;;;5096384;28;20056;-53
2022/04/10 11:12:52;;;;;;;21.92;11.98;;;8.80;99.90;;;;;;5096304;28;20027;-53
2022/04/10 11:15:19;;;;;;;22.50;12.50;;;8.70;99.90;;;;;;5096031;28;20059;-53
2022/04/10 11:17:48;;;;;;;27.83;13.05;;;8.60;99.90;;;;;;5096480;28;20039;-53
2022/04/10 11:20:16;;;;;;;20.52;13.10;;;8.70;99.90;;;;;;5096196;28;20028;-54
2022/04/10 11:22:47;;;;;;;19.58;12.00;;;8.70;99.90;;;;;;5096105;28;20024;-53
2022/04/10 11:25:16;;;;;;;18.77;12.20;;;8.40;99.90;;;;;;5096103;28;20539;-53
2022/04/10 11:27:48;;;;;;;26.17;11.80;;;8.40;99.90;;;;;;5096176;28;20028;-53
2022/04/10 11:30:20;;;;;;;23.02;11.43;;;8.50;99.90;;;;;;5094819;28;20024;-54
2022/04/10 11:32:52;;;;;;;23.55;12.18;;;8.80;99.90;;;;;;5095948;28;20105;-53
2022/04/10 11:35:21;;;;;;;23.55;12.77;;;9.00;99.90;;;;;;5095691;28;20462;-53
2022/04/10 11:37:50;;;;;;;17.25;9.77;;;9.30;99.90;;;;;;5095873;28;20052;-53
2022/04/10 11:40:37;;;;;;;19.85;11.23;;;9.70;99.90;;;;;;5095897;28;20099;-53
2022/04/10 11:43:07;;;;;;;22.40;12.90;;;10.00;99.90;;;;;;5095772;28;20059;-54
2022/04/10 11:45:33;;;;;;;14.02;9.52;;;10.30;99.90;;;;;;5095499;28;20031;-54
2022/04/10 11:48:08;;;;;;;15.95;9.57;;;10.60;99.90;;;;;;5095604;28;20035;-54
2022/04/10 11:50:34;;;;;;;14.57;9.73;;;10.60;99.90;;;;;;5095680;28;20157;-54
2022/04/10 11:53:09;;;;;;;12.70;8.57;;;10.70;99.90;;;;;;5095491;28;20042;-54
2022/04/10 11:55:43;;;;;;;18.30;10.52;;;10.70;99.90;;;;;;5095554;28;20031;-54
2022/04/10 11:58:15;;;;;;;19.40;10.25;;;10.60;99.90;;;;;;5095484;28;20497;-54
2022/04/10 12:00:53;;;;;;;13.15;9.05;;;10.90;99.90;;;;;;5095333;28;20031;-53
2022/04/10 12:03:22;;;;;;;17.50;11.50;;;11.00;99.90;;;;;;5095348;28;20054;-53
2022/04/10 12:05:48;;;;;;;16.33;9.13;;;11.20;99.90;;;;;;5095170;28;20043;-54
2022/04/10 12:08:15;;;;;;;21.77;11.07;;;11.10;99.90;;;;;;5095200;28;20103;-53
2022/04/10 12:10:41;;;;;;;17.10;11.85;;;11.10;99.90;;;;;;5095092;28;20095;-54
2022/04/10 12:13:09;;;;;;;11.07;6.78;;;11.10;99.90;;;;;;5095114;28;20047;-54
2022/04/10 12:15:35;;;;;;;13.90;7.32;;;10.60;99.90;;;;;;5094947;28;20032;-53
2022/04/10 12:18:05;;;;;;;18.83;11.63;;;10.40;99.90;;;;;;5095349;28;20043;-53
2022/04/10 12:20:33;;;;;;;12.35;7.88;;;10.40;99.90;;;;;;5094936;28;20035;-53
2022/04/10 12:22:59;;;;;;;12.90;7.28;;;10.10;99.90;;;;;;5095033;28;20451;-53
2022/04/10 12:25:27;;;;;;;14.48;7.45;;;10.10;99.90;;;;;;5095031;28;20060;-54
2022/04/10 12:27:53;;;;;;;20.30;8.75;;;10.30;99.90;;;;;;5095217;28;20032;-53
2022/04/10 12:30:21;;;;;;;12.45;7.55;;;10.50;99.90;;;;;;5094912;28;20051;-53
2022/04/10 12:32:47;;;;;;;24.27;10.98;;;10.60;99.90;;;;;;5094750;28;20028;-54
2022/04/10 12:35:14;;;;;;;12.35;6.65;;;10.50;99.90;;;;;;5094544;28;20024;-53
2022/04/10 12:37:58;;;;;;;11.20;6.57;;;10.50;99.90;;;;;;5094929;28;20024;-53
2022/04/10 12:40:27;;;;;;;11.63;6.40;;;10.60;99.90;;;;;;5094808;28;20496;-53
2022/04/10 12:43:00;;;;;;;16.20;7.63;;;10.70;99.90;;;;;;5094618;28;20069;-53
2022/04/10 12:45:32;;;;;;;8.93;5.85;;;10.80;99.90;;;;;;5094815;28;20374;-53
2022/04/10 12:47:59;;;;;;;15.45;12.07;;;10.60;99.90;;;;;;5094927;28;20171;-53